Time;durP1;ratioP1;P1;durP2;ratioP2;P2;SDS_P1;SDS_P2;PMS_P1;PMS_P2;Temp;Humidity;BMP_temperature;BMP_pressure;BME280_temperature;BME280_humidity;BME280_pressure;Samples;Min_cycle;Max_cycle;Signal;HPM_P1;HPM_P2
2022/02/26 00:01:41;;;;;;;;;21.25;13.50;;;;;5.54;68.96;102383.59;5093894;27;45283;-66
2022/02/26 00:04:06;;;;;;;;;16.50;13.75;;;;;5.52;68.91;102382.69;5094632;27;45647;-65
2022/02/26 00:06:31;;;;;;;;;21.50;17.50;;;;;5.51;68.57;102384.41;5082371;27;45289;-66
2022/02/26 00:08:57;;;;;;;;;21.75;17.00;;;;;5.51;69.08;102386.16;5074115;27;45457;-65
2022/02/26 00:11:22;;;;;;;;;29.50;25.00;;;;;5.52;69.14;102380.94;5074042;28;45522;-65
2022/02/26 00:13:48;;;;;;;;;21.50;13.00;;;;;5.51;68.96;102383.56;5072489;28;46688;-67
2022/02/26 00:16:13;;;;;;;;;27.50;25.25;;;;;5.50;69.37;102385.28;5075920;28;45441;-65
2022/02/26 00:18:40;;;;;;;;;35.50;21.50;;;;;5.50;69.39;102379.19;5075035;27;45288;-66
2022/02/26 00:21:05;;;;;;;;;17.25;13.25;;;;;5.49;69.18;102387.88;5076819;27;45817;-64
2022/02/26 00:23:30;;;;;;;;;13.75;13.00;;;;;5.48;69.74;102383.53;5092833;27;46900;-66
2022/02/26 00:25:56;;;;;;;;;17.25;14.00;;;;;5.47;69.71;102392.22;5075289;27;45400;-65
2022/02/26 00:28:22;;;;;;;;;17.00;15.25;;;;;5.46;69.77;102393.06;5077741;28;45716;-65
2022/02/26 00:30:47;;;;;;;;;23.75;16.50;;;;;5.42;69.36;102394.75;5075499;27;45380;-65
2022/02/26 00:33:13;;;;;;;;;20.25;18.00;;;;;5.41;69.90;102393.91;5077260;27;46093;-64
2022/02/26 00:35:40;;;;;;;;;52.75;38.75;;;;;5.40;69.79;102391.25;5077314;27;45259;-63
2022/02/26 00:38:05;;;;;;;;;17.50;10.00;;;;;5.38;70.39;102390.38;5077926;27;45468;-67
2022/02/26 00:40:31;;;;;;;;;31.75;27.00;;;;;5.36;69.83;102399.91;5077233;27;45472;-64
2022/02/26 00:42:57;;;;;;;;;23.25;21.75;;;;;5.37;69.91;102401.66;5077305;27;46034;-66
2022/02/26 00:45:23;;;;;;;;;37.75;25.75;;;;;5.34;69.74;102399.91;5077400;27;45485;-65
2022/02/26 00:47:49;;;;;;;;;30.25;24.50;;;;;5.34;70.71;102402.53;5075758;27;45397;-65
2022/02/26 00:50:15;;;;;;;;;26.25;23.25;;;;;5.32;70.15;102391.19;5076444;28;45421;-66
2022/02/26 00:52:40;;;;;;;;;25.00;16.00;;;;;5.31;70.43;102392.06;5077091;27;45387;-66
2022/02/26 00:55:06;;;;;;;;;17.00;11.00;;;;;5.30;70.55;102389.41;5077243;27;45290;-66
2022/02/26 00:57:32;;;;;;;;;17.25;13.25;;;;;5.28;71.18;102388.53;5077207;27;45307;-66
2022/02/26 00:59:58;;;;;;;;;21.75;18.00;;;;;5.30;70.52;102399.84;5077897;27;45547;-65
2022/02/26 01:02:23;;;;;;;;;18.75;16.00;;;;;5.29;70.99;102398.97;5075503;27;47433;-66
2022/02/26 01:04:49;;;;;;;;;25.50;18.00;;;;;5.29;70.92;102396.34;5077144;27;45219;-68
2022/02/26 01:07:15;;;;;;;;;27.00;20.50;;;;;5.28;70.87;102396.34;5077401;27;45208;-65
2022/02/26 01:09:40;;;;;;;;;33.50;27.50;;;;;5.27;71.12;102395.47;5077224;27;45490;-64
2022/02/26 01:12:08;;;;;;;;;27.75;23.75;;;;;5.25;71.17;102397.19;5077278;27;45382;-65
2022/02/26 01:14:34;;;;;;;;;21.25;16.50;;;;;5.27;71.62;102405.91;5077100;27;45374;-65
2022/02/26 01:17:00;;;;;;;;;14.75;11.50;;;;;5.28;70.99;102409.41;5075680;27;45261;-65
2022/02/26 01:19:26;;;;;;;;;15.50;13.00;;;;;5.25;71.19;102400.69;5077211;27;45314;-65
2022/02/26 01:21:52;;;;;;;;;15.75;13.50;;;;;5.23;71.46;102406.72;5076845;27;46247;-64
2022/02/26 01:24:18;;;;;;;;;18.50;14.25;;;;;5.24;71.65;102405.88;5076724;27;45262;-65
2022/02/26 01:26:43;;;;;;;;;17.75;14.75;;;;;5.23;71.83;102412.84;5081410;27;45176;-65
2022/02/26 01:29:09;;;;;;;;;16.00;14.75;;;;;5.21;71.54;102417.16;5081662;27;45482;-64
2022/02/26 01:31:34;;;;;;;;;24.50;13.00;;;;;5.20;71.91;102419.72;5077045;27;45620;-67
2022/02/26 01:34:01;;;;;;;;;15.00;14.25;;;;;5.18;71.77;102414.50;5096424;27;45795;-65
2022/02/26 01:36:26;;;;;;;;;19.75;16.25;;;;;5.19;72.34;102413.66;5095422;27;45364;-66
2022/02/26 01:38:53;;;;;;;;;13.25;12.50;;;;;5.18;71.68;102411.91;5096671;27;45453;-66
2022/02/26 01:41:18;;;;;;;;;15.25;12.25;;;;;5.16;71.91;102421.44;5096209;27;45518;-67
2022/02/26 01:43:44;;;;;;;;;16.25;10.75;;;;;5.14;72.11;102419.66;5095000;27;45334;-65
2022/02/26 01:46:10;;;;;;;;;13.25;11.75;;;;;5.11;72.12;102426.59;5076184;27;45915;-65
2022/02/26 01:48:37;;;;;;;;;15.50;12.50;;;;;5.10;72.64;102419.63;5075788;27;45581;-66
2022/02/26 01:51:04;;;;;;;;;17.00;10.75;;;;;5.09;72.22;102409.19;5091217;27;48141;-65
2022/02/26 01:53:29;;;;;;;;;16.00;12.25;;;;;5.08;72.53;102415.25;5075471;27;45267;-65
2022/02/26 01:55:56;;;;;;;;;17.00;12.00;;;;;5.06;72.70;102412.63;5075762;27;45388;-66
2022/02/26 01:58:21;;;;;;;;;15.25;12.75;;;;;5.05;72.36;102417.84;5074169;27;45520;-67
2022/02/26 02:00:46;;;;;;;;;15.75;11.25;;;;;5.03;72.43;102417.78;5074322;27;46307;-66
2022/02/26 02:03:12;;;;;;;;;12.75;9.50;;;;;5.02;72.59;102423.88;5076221;28;45520;-66
2022/02/26 02:05:39;;;;;;;;;12.25;12.00;;;;;5.01;72.82;102422.13;5075320;27;45407;-63
2022/02/26 02:08:04;;;;;;;;;16.75;13.00;;;;;4.98;72.67;102414.25;5076353;27;45303;-63
2022/02/26 02:10:30;;;;;;;;;13.00;10.00;;;;;4.99;72.46;102417.75;5073510;28;48161;-62
2022/02/26 02:12:58;;;;;;;;;16.00;12.75;;;;;4.97;73.42;102413.41;5075994;27;45378;-64
2022/02/26 02:15:35;;;;;;;;;12.75;10.50;;;;;4.94;72.63;102418.56;5076187;27;45238;-65
2022/02/26 02:18:01;;;;;;;;;14.50;12.00;;;;;4.94;73.09;102428.13;5074544;27;45655;-63
2022/02/26 02:20:27;;;;;;;;;16.25;11.75;;;;;4.92;72.81;102420.28;5075723;27;46334;-63
2022/02/26 02:22:52;;;;;;;;;17.50;13.75;;;;;4.93;73.32;102419.44;5075064;27;45477;-64
2022/02/26 02:25:19;;;;;;;;;15.50;13.00;;;;;4.93;73.02;102415.94;5074097;28;45408;-64
2022/02/26 02:27:44;;;;;;;;;18.00;13.50;;;;;4.90;73.05;102418.50;5075978;27;45527;-64
2022/02/26 02:30:10;;;;;;;;;13.25;10.75;;;;;4.88;72.66;102415.00;5075862;27;45355;-65
2022/02/26 02:32:36;;;;;;;;;26.75;20.00;;;;;4.86;72.83;102417.59;5075641;27;45426;-66
2022/02/26 02:35:02;;;;;;;;;32.50;23.25;;;;;4.83;73.36;102409.75;5074808;27;45360;-65
2022/02/26 02:37:27;;;;;;;;;28.00;23.75;;;;;4.82;73.55;102408.00;5074589;28;45290;-64
2022/02/26 02:39:53;;;;;;;;;27.25;21.00;;;;;4.80;73.42;102404.47;5075048;27;45437;-64
2022/02/26 02:42:18;;;;;;;;;19.00;14.75;;;;;4.79;73.55;102400.97;5091261;27;45597;-66
2022/02/26 02:44:44;;;;;;;;;17.25;14.00;;;;;4.78;73.43;102391.41;5076115;27;45297;-64
2022/02/26 02:47:09;;;;;;;;;22.00;14.75;;;;;4.79;73.75;102400.97;5076028;27;45244;-65
2022/02/26 02:49:35;;;;;;;;;22.50;12.50;;;;;4.78;73.66;102400.97;5075559;27;46372;-65
2022/02/26 02:52:01;;;;;;;;;15.50;11.75;;;;;4.79;73.50;102403.59;5075435;27;45442;-65
2022/02/26 02:54:27;;;;;;;;;9.75;8.75;;;;;4.76;73.84;102398.34;5075572;27;45408;-65
2022/02/26 02:56:52;;;;;;;;;13.75;10.00;;;;;4.76;73.87;102400.06;5075412;27;45310;-66
2022/02/26 02:59:18;;;;;;;;;19.00;8.75;;;;;4.76;73.78;102397.44;5073311;27;48429;-64
2022/02/26 03:01:43;;;;;;;;;6.75;6.00;;;;;4.69;73.28;102388.69;5075435;27;45449;-65
2022/02/26 03:04:08;;;;;;;;;10.50;6.00;;;;;4.75;73.74;102403.50;5073847;27;45291;-65
2022/02/26 03:06:34;;;;;;;;;15.00;10.25;;;;;4.77;73.81;102399.19;5075386;28;45363;-64
2022/02/26 03:09:00;;;;;;;;;11.00;11.00;;;;;4.77;73.75;102394.88;5075007;27;45560;-65
2022/02/26 03:11:25;;;;;;;;;14.75;11.50;;;;;4.77;74.17;102392.25;5075318;27;45267;-64
2022/02/26 03:13:51;;;;;;;;;13.00;11.75;;;;;4.76;73.96;102387.91;5075381;27;45650;-67
2022/02/26 03:16:16;;;;;;;;;12.50;10.25;;;;;4.75;74.03;102382.66;5075521;28;45631;-65
2022/02/26 03:18:42;;;;;;;;;15.25;12.25;;;;;4.73;73.84;102379.16;5075360;27;46171;-65
2022/02/26 03:21:07;;;;;;;;;17.00;13.25;;;;;4.73;74.09;102386.97;5074997;27;45357;-64
2022/02/26 03:23:33;;;;;;;;;16.25;11.50;;;;;4.70;74.00;102387.81;5075294;27;45298;-65
2022/02/26 03:25:58;;;;;;;;;17.25;13.50;;;;;4.71;74.13;102388.69;5075445;27;45584;-65
2022/02/26 03:28:23;;;;;;;;;14.50;13.00;;;;;4.70;74.14;102387.81;5074876;27;45350;-65
2022/02/26 03:30:49;;;;;;;;;17.50;15.25;;;;;4.68;74.22;102381.72;5075221;27;45254;-67
2022/02/26 03:33:15;;;;;;;;;21.75;18.00;;;;;4.64;73.97;102379.94;5075566;28;45691;-64
2022/02/26 03:35:41;;;;;;;;;23.00;16.00;;;;;4.63;73.76;102391.22;5074033;28;45350;-64
2022/02/26 03:38:07;;;;;;;;;21.00;16.25;;;;;4.61;74.26;102395.53;5073288;27;46679;-65
2022/02/26 03:40:34;;;;;;;;;22.00;17.00;;;;;4.61;74.51;102396.38;5074606;27;45346;-63
2022/02/26 03:43:00;;;;;;;;;21.25;15.00;;;;;4.59;74.27;102389.41;5074850;27;45325;-62
2022/02/26 03:45:25;;;;;;;;;15.50;13.75;;;;;4.58;73.95;102390.28;5073696;28;45352;-65
2022/02/26 03:47:51;;;;;;;;;20.75;13.75;;;;;4.56;74.40;102378.94;5074449;27;46004;-64
2022/02/26 03:50:16;;;;;;;;;14.50;12.00;;;;;4.54;74.18;102381.50;5072949;28;45327;-64
2022/02/26 03:52:42;;;;;;;;;20.00;14.50;;;;;4.52;73.91;102380.63;5074874;27;45221;-64
2022/02/26 03:55:09;;;;;;;;;22.25;13.00;;;;;4.49;74.50;102381.47;5074656;27;45465;-61
2022/02/26 03:57:35;;;;;;;;;19.00;13.00;;;;;4.45;74.01;102381.38;5089752;27;46253;-65
2022/02/26 04:00:04;;;;;;;;;12.50;10.00;;;;;4.46;74.42;102381.44;5074496;27;45343;-64
2022/02/26 04:02:29;;;;;;;;;12.00;8.25;;;;;4.46;74.48;102377.94;5089916;27;45346;-63
2022/02/26 04:04:55;;;;;;;;;12.25;10.25;;;;;4.45;75.05;102386.59;5074742;27;45400;-65
2022/02/26 04:07:20;;;;;;;;;14.50;8.75;;;;;4.43;75.04;102391.81;5074448;27;45384;-66
2022/02/26 04:09:46;;;;;;;;;12.00;11.50;;;;;4.42;75.05;102394.38;5074576;28;45297;-64
2022/02/26 04:12:11;;;;;;;;;17.75;14.00;;;;;4.42;74.89;102397.88;5074382;27;45255;-65
2022/02/26 04:14:37;;;;;;;;;13.00;10.50;;;;;4.41;74.67;102387.41;5074417;27;45507;-63
2022/02/26 04:17:02;;;;;;;;;14.75;13.00;;;;;4.39;75.23;102390.00;5072860;28;45442;-64
2022/02/26 04:19:28;;;;;;;;;11.50;10.50;;;;;4.37;75.50;102404.75;5089896;27;45329;-65
2022/02/26 04:21:53;;;;;;;;;7.00;5.75;;;;;4.37;74.98;102397.78;5074385;27;45513;-64
2022/02/26 04:24:19;;;;;;;;;10.00;6.75;;;;;4.37;75.08;102407.34;5074389;27;45663;-63
2022/02/26 04:26:44;;;;;;;;;14.50;9.00;;;;;4.36;75.30;102406.47;5074235;27;45253;-63
2022/02/26 04:29:11;;;;;;;;;10.25;6.75;;;;;4.37;75.24;102404.75;5074129;27;45343;-66
2022/02/26 04:31:37;;;;;;;;;12.00;8.00;;;;;4.37;75.14;102415.16;5074464;27;45441;-64
2022/02/26 04:34:02;;;;;;;;;13.50;7.25;;;;;4.36;74.88;102408.19;5074276;27;45574;-62
2022/02/26 04:36:28;;;;;;;;;6.50;6.00;;;;;4.35;75.35;102411.66;5074089;27;45441;-64
2022/02/26 04:38:53;;;;;;;;;11.25;6.00;;;;;4.33;74.79;102406.41;5072547;27;45598;-65
2022/02/26 04:41:19;;;;;;;;;10.75;7.75;;;;;4.36;74.96;102418.63;5074627;27;45352;-65
2022/02/26 04:43:44;;;;;;;;;11.25;9.75;;;;;4.35;75.36;102419.47;5074460;27;45357;-65
2022/02/26 04:46:10;;;;;;;;;14.25;10.00;;;;;4.36;74.73;102418.63;5073741;28;47060;-65
2022/02/26 04:48:36;;;;;;;;;5.50;5.00;;;;;4.36;74.96;102408.19;5074120;27;45406;-64
2022/02/26 04:51:03;;;;;;;;;11.25;6.75;;;;;4.35;74.34;102415.13;5074051;27;45282;-65
2022/02/26 04:53:28;;;;;;;;;6.50;6.00;;;;;4.31;74.75;102409.88;5074270;28;45472;-67
2022/02/26 04:55:53;;;;;;;;;6.00;5.00;;;;;4.34;74.95;102415.13;5073941;28;45413;-64
2022/02/26 04:58:19;;;;;;;;;8.50;7.00;;;;;4.33;75.01;102421.19;5073735;27;45432;-65
2022/02/26 05:00:44;;;;;;;;;9.00;6.00;;;;;4.30;74.45;102411.56;5074383;27;45309;-63
2022/02/26 05:03:10;;;;;;;;;7.75;5.50;;;;;4.31;74.26;102412.47;5077706;28;45509;-65
2022/02/26 05:05:35;;;;;;;;;11.25;7.00;;;;;4.31;74.55;102409.88;5077311;27;45871;-63
2022/02/26 05:08:01;;;;;;;;;22.00;16.50;;;;;4.27;74.22;102411.53;5077165;27;45283;-65
2022/02/26 05:10:26;;;;;;;;;13.50;9.00;;;;;4.28;74.48;102412.41;5077149;27;45411;-65
2022/02/26 05:12:52;;;;;;;;;33.00;28.00;;;;;4.28;74.31;102409.81;5077433;28;45559;-65
2022/02/26 05:15:19;;;;;;;;;13.00;8.00;;;;;4.27;74.40;102402.84;5077349;27;45491;-64
2022/02/26 05:17:45;;;;;;;;;10.00;6.75;;;;;4.25;74.82;102405.41;5077136;27;45361;-63
2022/02/26 05:20:12;;;;;;;;;9.50;7.00;;;;;4.19;74.29;102395.75;5077213;27;45467;-67
2022/02/26 05:22:37;;;;;;;;;10.50;7.00;;;;;4.23;74.27;102400.16;5077192;27;45229;-66
2022/02/26 05:25:05;;;;;;;;;9.00;7.00;;;;;4.22;74.25;102406.22;5076948;27;47061;-64
2022/02/26 05:27:30;;;;;;;;;6.50;6.00;;;;;4.22;74.41;102405.38;5075395;28;45273;-65
2022/02/26 05:29:56;;;;;;;;;12.00;7.00;;;;;4.20;74.44;102400.13;5076832;27;45252;-63
2022/02/26 05:32:22;;;;;;;;;11.00;5.75;;;;;4.20;73.53;102400.13;5092876;27;45506;-64
2022/02/26 05:34:51;;;;;;;;;7.00;6.50;;;;;4.20;74.24;102407.94;5076696;27;46119;-65
2022/02/26 05:37:16;;;;;;;;;14.50;8.25;;;;;4.19;74.13;102405.31;5076763;27;45362;-66
2022/02/26 05:39:41;;;;;;;;;9.75;6.00;;;;;4.17;73.95;102399.22;5076696;27;45301;-62
2022/02/26 05:42:07;;;;;;;;;6.00;6.00;;;;;4.17;74.08;102405.28;5076873;28;45643;-64
2022/02/26 05:44:32;;;;;;;;;10.50;5.00;;;;;4.15;73.79;102400.91;5076432;28;45679;-64
2022/02/26 05:46:57;;;;;;;;;6.75;6.25;;;;;4.15;74.19;102404.38;5075447;27;45248;-65
2022/02/26 05:49:24;;;;;;;;;7.25;6.50;;;;;4.16;73.90;102405.28;5075620;28;45835;-64
2022/02/26 05:51:49;;;;;;;;;7.50;6.25;;;;;4.09;74.06;102399.06;5077048;27;45553;-64
2022/02/26 05:54:15;;;;;;;;;11.25;6.00;;;;;4.14;74.49;102414.78;5076330;27;45509;-65
2022/02/26 05:56:40;;;;;;;;;6.25;5.75;;;;;4.13;74.33;102406.09;5076545;27;45336;-65
2022/02/26 05:59:06;;;;;;;;;9.00;7.25;;;;;4.14;73.67;102406.97;5076400;27;45238;-66
2022/02/26 06:01:31;;;;;;;;;16.00;14.00;;;;;4.12;73.97;102404.34;5076414;28;45587;-64
2022/02/26 06:03:57;;;;;;;;;11.25;7.00;;;;;4.09;74.44;102399.97;5074783;28;46226;-65
2022/02/26 06:06:22;;;;;;;;;9.50;6.50;;;;;4.10;73.92;102411.25;5076413;27;45406;-66
2022/02/26 06:08:47;;;;;;;;;8.75;8.50;;;;;4.07;74.14;102416.41;5076397;27;45441;-64
2022/02/26 06:11:13;;;;;;;;;14.75;8.25;;;;;4.07;74.27;102421.63;5075200;27;45320;-64
2022/02/26 06:13:38;;;;;;;;;11.00;8.00;;;;;4.07;73.97;102421.63;5075906;27;46030;-64
2022/02/26 06:16:05;;;;;;;;;16.50;10.25;;;;;4.07;74.22;102413.81;5076087;27;45317;-65
2022/02/26 06:18:31;;;;;;;;;9.75;9.00;;;;;4.07;74.28;102425.13;5076129;27;45363;-66
2022/02/26 06:20:56;;;;;;;;;10.00;9.00;;;;;4.06;74.34;102427.69;5076413;28;45344;-64
2022/02/26 06:23:21;;;;;;;;;15.00;11.00;;;;;4.04;73.51;102425.06;5076593;27;45629;-65
2022/02/26 06:25:47;;;;;;;;;11.25;10.00;;;;;4.05;74.40;102421.59;5074848;27;45328;-65
2022/02/26 06:28:12;;;;;;;;;15.25;8.25;;;;;4.04;74.52;102421.56;5076335;28;45289;-63
2022/02/26 06:30:38;;;;;;;;;13.25;10.50;;;;;4.05;74.25;102429.41;5076408;27;45333;-62
2022/02/26 06:33:04;;;;;;;;;9.75;9.00;;;;;4.04;74.04;102427.66;5074419;27;47537;-65
2022/02/26 06:35:30;;;;;;;;;18.25;13.00;;;;;4.02;74.09;102421.56;5076163;27;45312;-65
2022/02/26 06:37:55;;;;;;;;;15.50;10.50;;;;;4.02;74.34;102421.56;5090009;27;46029;-66
2022/02/26 06:40:21;;;;;;;;;6.75;6.50;;;;;4.04;74.06;102424.16;5094132;27;45515;-65
2022/02/26 06:42:46;;;;;;;;;9.75;7.25;;;;;4.02;73.88;102424.16;5094352;27;46246;-64
2022/02/26 06:45:11;;;;;;;;;10.00;8.75;;;;;4.02;73.84;102416.34;5094658;27;45515;-65
2022/02/26 06:47:37;;;;;;;;;9.25;6.00;;;;;4.02;74.50;102425.88;5093873;27;45401;-66
2022/02/26 06:50:03;;;;;;;;;13.25;10.00;;;;;4.03;73.81;102427.63;5095770;27;45325;-64
2022/02/26 06:52:29;;;;;;;;;9.25;6.75;;;;;4.03;74.05;102427.63;5095689;27;46613;-66
2022/02/26 06:54:56;;;;;;;;;8.00;6.00;;;;;4.06;74.16;102432.88;5094907;27;45287;-65
2022/02/26 06:57:21;;;;;;;;;10.00;7.00;;;;;4.03;74.39;102425.03;5095890;27;45562;-66
2022/02/26 06:59:47;;;;;;;;;5.50;5.00;;;;;4.06;73.86;102427.69;5112089;27;45488;-65
2022/02/26 07:02:13;;;;;;;;;13.00;6.50;;;;;4.05;74.07;102428.53;5095560;27;45373;-67
2022/02/26 07:04:38;;;;;;;;;22.25;19.25;;;;;4.06;73.75;102425.97;5093757;27;45798;-66
2022/02/26 07:07:04;;;;;;;;;10.00;9.75;;;;;4.08;74.02;102424.25;5094771;27;45373;-65
2022/02/26 07:09:29;;;;;;;;;15.00;9.50;;;;;4.09;73.69;102427.72;5095777;27;45491;-66
2022/02/26 07:11:55;;;;;;;;;10.25;5.00;;;;;4.11;73.51;102430.38;5095779;27;45387;-66
2022/02/26 07:14:20;;;;;;;;;8.50;7.00;;;;;4.15;73.34;102433.03;5094919;27;45316;-67
2022/02/26 07:16:46;;;;;;;;;10.50;10.50;;;;;4.16;73.44;102431.31;5095057;27;45873;-65
2022/02/26 07:19:11;;;;;;;;;11.25;8.75;;;;;4.18;73.93;102429.63;5094867;27;45508;-66
2022/02/26 07:21:37;;;;;;;;;9.25;8.25;;;;;4.20;73.20;102428.78;5094303;27;45522;-64
2022/02/26 07:24:03;;;;;;;;;5.75;5.75;;;;;4.23;73.83;102427.97;5094287;27;45439;-66
2022/02/26 07:26:31;;;;;;;;;11.50;10.00;;;;;4.23;73.03;102436.63;5093428;27;45413;-65
2022/02/26 07:28:57;;;;;;;;;10.00;5.50;;;;;4.27;73.24;102428.91;5097412;27;45395;-67
2022/02/26 07:31:22;;;;;;;;;13.00;7.25;;;;;4.30;73.44;102439.38;5095021;27;45802;-66
2022/02/26 07:33:48;;;;;;;;;7.75;7.00;;;;;4.31;73.05;102428.97;5095127;27;45266;-66
2022/02/26 07:36:14;;;;;;;;;9.75;6.25;;;;;4.31;72.63;102425.50;5095255;27;45457;-66
2022/02/26 07:38:40;;;;;;;;;12.00;7.00;;;;;4.34;72.59;102438.56;5095153;27;45620;-66
2022/02/26 07:41:06;;;;;;;;;9.50;7.75;;;;;4.34;72.39;102449.00;5094651;27;45369;-66
2022/02/26 07:43:35;;;;;;;;;12.25;7.75;;;;;4.35;72.74;102443.78;5095181;27;45385;-66
2022/02/26 07:46:01;;;;;;;;;16.00;10.25;;;;;4.32;72.01;102428.09;5095078;27;45293;-66
2022/02/26 07:48:27;;;;;;;;;13.00;9.75;;;;;4.31;72.58;102439.38;5095522;27;45517;-66
2022/02/26 07:50:52;;;;;;;;;18.00;11.75;;;;;4.32;72.79;102433.31;5094696;27;45817;-66
2022/02/26 07:53:18;;;;;;;;;10.00;8.25;;;;;4.36;73.16;102429.03;5094978;27;45467;-65
2022/02/26 07:55:44;;;;;;;;;14.75;13.50;;;;;4.39;72.99;102429.94;5093943;27;45416;-67
2022/02/26 07:58:09;;;;;;;;;13.50;9.50;;;;;4.43;72.76;102441.31;5095127;27;45663;-65
2022/02/26 08:00:35;;;;;;;;;15.25;11.00;;;;;4.41;72.16;102437.81;5094489;27;45914;-66
2022/02/26 08:03:00;;;;;;;;;14.00;12.50;;;;;4.45;72.42;102441.31;5093314;27;45477;-66
2022/02/26 08:05:29;;;;;;;;;14.75;12.75;;;;;4.46;72.07;102445.69;5095184;27;45461;-65
2022/02/26 08:07:55;;;;;;;;;14.25;13.50;;;;;4.47;72.21;102445.72;5095312;27;45557;-65
2022/02/26 08:10:22;;;;;;;;;21.25;14.25;;;;;4.49;72.53;102441.41;5092704;27;47659;-65
2022/02/26 08:12:55;;;;;;;;;15.75;13.00;;;;;4.52;72.36;102440.56;5093060;27;45905;-65
2022/02/26 08:15:22;;;;;;;;;20.50;14.50;;;;;4.57;72.24;102448.47;5094404;27;45413;-66
2022/02/26 08:17:48;;;;;;;;;13.00;11.00;;;;;4.59;72.27;102446.75;5094780;27;45259;-65
2022/02/26 08:20:15;;;;;;;;;15.25;13.50;;;;;4.63;72.12;102432.91;5094700;27;45244;-66
2022/02/26 08:22:42;;;;;;;;;13.25;12.50;;;;;4.67;72.29;102439.94;5094079;27;45395;-65
2022/02/26 08:25:09;;;;;;;;;16.00;12.75;;;;;4.70;71.81;102445.19;5092951;27;45387;-65
2022/02/26 08:27:34;;;;;;;;;13.25;12.25;;;;;4.76;71.69;102449.59;5094710;27;45519;-65
2022/02/26 08:30:00;;;;;;;;;16.00;13.00;;;;;4.81;71.82;102438.38;5094614;27;46154;-67
2022/02/26 08:32:28;;;;;;;;;13.25;12.00;;;;;4.88;71.73;102441.06;5093842;27;45397;-67
2022/02/26 08:34:54;;;;;;;;;17.00;13.75;;;;;4.92;71.58;102437.66;5094970;27;45226;-66
2022/02/26 08:37:19;;;;;;;;;17.75;12.25;;;;;4.98;71.23;102442.94;5098278;27;45624;-67
2022/02/26 08:39:45;;;;;;;;;11.50;8.25;;;;;5.03;70.88;102446.50;5096706;27;45302;-64
2022/02/26 08:42:11;;;;;;;;;16.50;12.75;;;;;5.06;70.97;102440.44;5097953;27;45478;-65
2022/02/26 08:44:38;;;;;;;;;13.50;11.75;;;;;5.10;71.11;102440.50;5098438;27;45327;-66
2022/02/26 08:47:04;;;;;;;;;14.75;11.00;;;;;5.15;70.73;102442.28;5096932;27;45377;-67
2022/02/26 08:49:29;;;;;;;;;28.50;23.00;;;;;5.22;71.32;102454.53;5097740;27;46204;-65
2022/02/26 08:51:54;;;;;;;;;11.75;11.75;;;;;5.24;70.88;102437.19;5095938;27;45462;-66
2022/02/26 08:54:20;;;;;;;;;13.25;11.00;;;;;5.32;70.44;102435.56;5096771;27;45566;-66
2022/02/26 08:56:46;;;;;;;;;15.50;12.00;;;;;5.37;69.93;102431.28;5097808;27;45473;-66
2022/02/26 08:59:12;;;;;;;;;13.00;11.00;;;;;5.47;70.34;102449.63;5097322;27;47508;-66
2022/02/26 09:01:40;;;;;;;;;13.00;11.50;;;;;5.48;69.67;102440.94;5097444;27;45203;-65
2022/02/26 09:04:05;;;;;;;;;15.75;10.25;;;;;5.50;69.31;102439.22;5097280;27;45432;-66
2022/02/26 09:06:31;;;;;;;;;21.50;14.25;;;;;5.54;69.14;102435.78;5097834;27;45511;-67
2022/02/26 09:08:56;;;;;;;;;17.50;14.00;;;;;5.62;69.89;102435.84;5097462;27;45675;-65
2022/02/26 09:11:25;;;;;;;;;19.25;11.75;;;;;5.69;69.29;102435.94;5097366;27;45489;-67
2022/02/26 09:13:51;;;;;;;;;14.25;10.50;;;;;5.73;68.84;102438.59;5097395;27;45396;-67
2022/02/26 09:16:16;;;;;;;;;15.50;13.25;;;;;5.78;68.67;102442.97;5098083;27;45559;-67
2022/02/26 09:18:42;;;;;;;;;22.25;18.00;;;;;5.83;68.94;102438.72;5097444;27;45449;-66
2022/02/26 09:21:09;;;;;;;;;15.50;13.00;;;;;5.89;68.95;102437.88;5097505;27;45223;-67
2022/02/26 09:23:36;;;;;;;;;21.25;17.00;;;;;5.95;68.88;102447.53;5096951;27;45244;-65
2022/02/26 09:26:04;;;;;;;;;17.00;11.25;;;;;5.99;68.02;102436.22;5098003;27;45356;-65
2022/02/26 09:28:32;;;;;;;;;20.75;19.00;;;;;6.05;67.89;102433.72;5097411;27;45453;-67
2022/02/26 09:30:57;;;;;;;;;15.50;12.75;;;;;6.09;67.22;102431.97;5097332;27;45342;-65
2022/02/26 09:33:23;;;;;;;;;28.75;22.50;;;;;6.09;68.06;102431.97;5095360;27;45403;-68
2022/02/26 09:35:48;;;;;;;;;21.00;15.50;;;;;6.17;67.21;102435.53;5097443;27;45457;-65
2022/02/26 09:38:14;;;;;;;;;19.00;18.50;;;;;6.21;67.74;102426.84;5097089;27;45395;-67
2022/02/26 09:40:39;;;;;;;;;18.00;16.25;;;;;6.24;66.98;102424.25;5096385;27;45385;-66
2022/02/26 09:43:05;;;;;;;;;22.25;17.25;;;;;6.29;67.30;102421.69;5097066;27;45356;-66
2022/02/26 09:45:31;;;;;;;;;15.00;13.75;;;;;6.35;66.28;102423.47;5097431;27;45572;-66
2022/02/26 09:47:56;;;;;;;;;24.00;20.25;;;;;6.38;66.39;102420.91;5096093;27;45336;-66
2022/02/26 09:50:21;;;;;;;;;39.00;31.25;;;;;6.43;65.76;102413.97;5096505;27;45550;-65
2022/02/26 09:52:49;;;;;;;;;10.75;10.00;;;;;6.51;65.67;102417.50;5095373;27;45373;-65
2022/02/26 09:55:14;;;;;;;;;35.50;33.25;;;;;6.58;65.50;102413.16;5097335;27;45462;-66
2022/02/26 09:57:41;;;;;;;;;15.50;14.25;;;;;6.67;64.76;102412.34;5096595;27;45917;-67
2022/02/26 10:00:08;;;;;;;;;15.50;12.50;;;;;6.76;65.49;102412.41;5096312;27;45341;-66
2022/02/26 10:02:35;;;;;;;;;8.00;6.25;;;;;6.84;64.00;102410.69;5095335;27;45426;-65
2022/02/26 10:05:04;;;;;;;;;6.75;6.75;;;;;6.94;62.48;102427.34;5097309;27;45491;-66
2022/02/26 10:07:34;;;;;;;;;8.75;8.00;;;;;7.01;62.26;102417.75;5096860;27;47057;-66
2022/02/26 10:09:59;;;;;;;;;10.00;6.25;;;;;7.09;61.75;102412.56;5096733;27;45324;-65
2022/02/26 10:12:28;;;;;;;;;10.25;6.00;;;;;7.16;62.09;102406.47;5096547;27;45510;-67
2022/02/26 10:14:57;;;;;;;;;9.75;7.75;;;;;7.21;62.11;102407.38;5095732;27;45565;-66
2022/02/26 10:17:25;;;;;;;;;10.75;6.00;;;;;7.26;61.61;102402.13;5096530;27;46066;-66
2022/02/26 10:20:04;;;;;;;;;7.00;5.25;;;;;7.33;61.11;102401.28;5096639;27;45701;-66
2022/02/26 10:22:32;;;;;;;;;5.50;5.00;;;;;7.45;59.82;102400.44;5095867;27;45394;-66
2022/02/26 10:25:12;;;;;;;;;6.50;4.00;;;;;7.52;59.66;102399.59;5096733;27;45184;-66
2022/02/26 10:27:44;;;;;;;;;11.00;8.00;;;;;7.59;59.95;102395.25;5096624;27;45476;-67
2022/02/26 10:30:13;;;;;;;;;6.00;4.25;;;;;7.65;58.39;102400.50;5096188;27;45276;-65
2022/02/26 10:32:38;;;;;;;;;8.25;6.00;;;;;7.72;58.26;102399.63;5096106;27;45337;-65
2022/02/26 10:35:04;;;;;;;;;9.50;6.25;;;;;7.81;58.51;102398.75;5096904;27;45591;-67
2022/02/26 10:37:30;;;;;;;;;3.00;3.00;;;;;7.88;58.17;102395.25;5096363;27;46134;-65
2022/02/26 10:39:58;;;;;;;;;7.75;7.75;;;;;7.98;58.42;102385.66;5094570;27;45377;-66
2022/02/26 10:42:30;;;;;;;;;15.75;10.25;;;;;8.07;57.70;102392.66;5095910;27;45776;-67
2022/02/26 10:45:12;;;;;;;;;9.50;7.50;;;;;8.17;58.16;102381.28;5110201;27;45440;-65
2022/02/26 10:47:41;;;;;;;;;17.75;10.00;;;;;8.27;56.86;102386.50;5095603;27;46656;-66
2022/02/26 10:50:23;;;;;;;;;9.00;8.00;;;;;8.35;56.86;102371.63;5095796;27;45505;-66
2022/02/26 10:52:55;;;;;;;;;6.25;6.25;;;;;8.39;55.60;102378.63;5094481;27;45284;-68
2022/02/26 10:55:20;;;;;;;;;9.00;6.75;;;;;8.39;55.07;102369.88;5096313;27;45336;-67
2022/02/26 10:57:46;;;;;;;;;6.50;6.00;;;;;8.39;55.32;102372.50;5095342;27;45364;-65
2022/02/26 11:00:12;;;;;;;;;7.75;4.00;;;;;8.42;54.92;102376.00;5094911;27;45197;-65
2022/02/26 11:02:37;;;;;;;;;12.50;11.00;;;;;8.42;54.95;102362.00;5095860;27;45479;-64
2022/02/26 11:05:03;;;;;;;;;7.75;6.75;;;;;8.44;52.56;102368.09;5095190;27;45661;-66
2022/02/26 11:07:30;;;;;;;;;10.00;9.00;;;;;8.48;54.05;102362.88;5094334;27;46116;-66
2022/02/26 11:09:58;;;;;;;;;8.25;7.00;;;;;8.57;54.41;102372.50;5095036;27;45428;-66
2022/02/26 11:12:27;;;;;;;;;8.00;6.00;;;;;8.64;53.89;102369.84;5095826;27;45463;-66
2022/02/26 11:15:01;;;;;;;;;6.75;6.75;;;;;8.66;53.65;102357.59;5095240;27;45358;-65
2022/02/26 11:17:30;;;;;;;;;7.25;6.00;;;;;8.70;53.67;102354.94;5075045;27;45902;-65